createdAt,value
2023-03-20T00:01:58.225Z,100.00
2023-03-20T00:04:26.630Z,100.00
2023-03-20T00:06:54.466Z,100.00
2023-03-20T00:09:25.460Z,100.00
2023-03-20T00:11:55.347Z,100.00
2023-03-20T00:14:24.827Z,100.00
2023-03-20T00:16:53.104Z,100.00
2023-03-20T00:19:23.852Z,100.00
2023-03-20T00:21:51.895Z,100.00
2023-03-20T00:24:19.842Z,100.00
2023-03-20T00:26:50.704Z,100.00
2023-03-20T00:29:23.328Z,100.00
2023-03-20T00:31:51.481Z,100.00
2023-03-20T00:34:22.182Z,100.00
2023-03-20T00:36:49.807Z,100.00
2023-03-20T00:39:17.374Z,100.00
2023-03-20T00:41:50.100Z,100.00
2023-03-20T00:44:24.632Z,100.00
2023-03-20T00:46:55.044Z,100.00
2023-03-20T00:49:26.278Z,100.00
2023-03-20T00:51:53.841Z,100.00
2023-03-20T00:54:21.532Z,100.00
2023-03-20T00:56:55.817Z,100.00
2023-03-20T00:59:28.013Z,100.00
2023-03-20T01:01:56.479Z,100.00
2023-03-20T01:04:24.273Z,100.00
2023-03-20T01:06:52.504Z,100.00
2023-03-20T01:09:20.068Z,100.00
2023-03-20T01:11:47.849Z,100.00
2023-03-20T01:14:17.900Z,100.00
2023-03-20T01:16:46.924Z,100.00
2023-03-20T01:19:16.729Z,100.00
2023-03-20T01:21:44.889Z,100.00
2023-03-20T01:24:12.472Z,100.00
2023-03-20T01:26:42.245Z,100.00
2023-03-20T01:29:19.019Z,100.00
2023-03-20T01:32:14.708Z,100.00
2023-03-20T01:34:43.406Z,100.00
2023-03-20T01:37:14.490Z,100.00
2023-03-20T01:39:42.344Z,100.00
2023-03-20T01:42:12.668Z,100.00
2023-03-20T01:44:44.046Z,100.00
2023-03-20T01:47:18.213Z,100.00
2023-03-20T01:50:22.207Z,100.00
2023-03-20T01:52:56.469Z,100.00
2023-03-20T01:55:24.240Z,100.00
2023-03-20T01:58:03.009Z,100.00
2023-03-20T02:00:32.160Z,100.00
2023-03-20T02:03:01.498Z,100.00
2023-03-20T02:05:51.922Z,100.00
2023-03-20T02:08:26.786Z,100.00
2023-03-20T02:10:55.716Z,100.00
2023-03-20T02:13:29.810Z,100.00
2023-03-20T02:16:01.156Z,100.00
2023-03-20T02:18:49.771Z,100.00
2023-03-20T02:21:46.416Z,100.00
2023-03-20T02:24:44.626Z,100.00
2023-03-20T02:27:20.774Z,100.00
2023-03-20T02:30:24.199Z,100.00
2023-03-20T02:33:26.905Z,100.00
2023-03-20T02:36:27.447Z,100.00
2023-03-20T02:39:07.846Z,100.00
2023-03-20T02:41:40.146Z,100.00
2023-03-20T02:44:14.654Z,100.00
2023-03-20T02:46:52.736Z,100.00
2023-03-20T02:58:01.007Z,100.00
2023-03-20T03:00:33.484Z,100.00
2023-03-20T03:03:07.724Z,100.00
2023-03-20T03:05:39.564Z,100.00
2023-03-20T03:08:10.728Z,100.00
2023-03-20T03:10:43.706Z,100.00
2023-03-20T03:13:16.865Z,100.00
2023-03-20T03:15:47.717Z,100.00
2023-03-20T03:18:20.003Z,100.00
2023-03-20T03:20:51.184Z,100.00
2023-03-20T03:23:31.683Z,100.00
2023-03-20T03:26:02.118Z,100.00
2023-03-20T03:28:38.706Z,100.00
2023-03-20T03:31:09.363Z,100.00
2023-03-20T03:33:40.873Z,100.00
2023-03-20T03:36:20.651Z,100.00
2023-03-20T03:38:56.569Z,100.00
2023-03-20T03:41:31.178Z,100.00
2023-03-20T03:44:08.863Z,100.00
2023-03-20T03:46:46.299Z,100.00
2023-03-20T03:49:19.653Z,100.00
2023-03-20T03:51:51.773Z,100.00
2023-03-20T03:54:23.534Z,100.00
2023-03-20T03:57:12.908Z,100.00
2023-03-20T03:59:45.862Z,100.00
2023-03-20T04:02:14.020Z,100.00
2023-03-20T04:04:46.395Z,100.00
2023-03-20T04:07:15.002Z,100.00
2023-03-20T04:09:42.636Z,100.00
2023-03-20T04:12:31.564Z,100.00
2023-03-20T04:15:03.237Z,100.00
2023-03-20T04:17:33.389Z,100.00
2023-03-20T04:20:01.336Z,100.00
2023-03-20T04:22:29.032Z,100.00
2023-03-20T04:25:00.585Z,100.00
2023-03-20T04:27:29.162Z,100.00
2023-03-20T04:29:57.702Z,100.00
2023-03-20T04:32:49.865Z,99.51
2023-03-20T04:35:31.104Z,99.38
2023-03-20T04:38:03.827Z,99.44
2023-03-20T04:40:34.026Z,99.36
2023-03-20T04:43:01.637Z,99.19
2023-03-20T04:45:29.442Z,98.92
2023-03-20T04:47:58.512Z,99.12
2023-03-20T04:50:26.214Z,99.29
2023-03-20T04:52:54.867Z,99.25
2023-03-20T04:55:22.760Z,98.75
2023-03-20T04:57:51.509Z,98.27
2023-03-20T05:00:19.747Z,98.33
2023-03-20T05:02:47.490Z,98.33
2023-03-20T05:05:17.884Z,98.34
2023-03-20T05:07:45.933Z,98.52
2023-03-20T05:10:20.520Z,98.79
2023-03-20T05:12:56.941Z,98.71
2023-03-20T05:15:31.992Z,98.96
2023-03-20T05:18:31.856Z,98.56
2023-03-20T05:21:30.142Z,99.04
2023-03-20T05:24:18.184Z,98.80
2023-03-20T05:27:04.063Z,98.87
2023-03-20T05:29:48.303Z,99.30
2023-03-20T05:32:27.975Z,98.57
2023-03-20T05:35:09.348Z,99.08
2023-03-20T05:37:55.047Z,99.12
2023-03-20T05:40:42.348Z,98.87
2023-03-20T05:43:16.077Z,99.38
2023-03-20T05:45:56.789Z,98.75
2023-03-20T05:48:30.547Z,98.10
2023-03-20T05:51:13.949Z,97.76
2023-03-20T05:53:56.995Z,98.03
2023-03-20T05:56:44.995Z,98.34
2023-03-20T05:59:23.681Z,98.29
2023-03-20T06:02:05.370Z,97.96
2023-03-20T06:04:37.270Z,96.96
2023-03-20T06:07:40.106Z,97.17
2023-03-20T06:10:13.957Z,97.23
2023-03-20T06:12:42.734Z,96.77
2023-03-20T06:15:11.149Z,96.98
2023-03-20T06:17:43.604Z,96.68
2023-03-20T06:20:14.368Z,95.22
2023-03-20T06:22:41.959Z,95.24
2023-03-20T06:25:10.488Z,95.21
2023-03-20T06:27:44.166Z,95.17
2023-03-20T06:30:12.814Z,94.36
2023-03-20T06:32:41.483Z,93.93
2023-03-20T06:35:12.282Z,94.04
2023-03-20T06:37:44.670Z,93.59
2023-03-20T06:40:17.572Z,93.86
2023-03-20T06:42:46.552Z,94.12
2023-03-20T06:45:15.718Z,94.69
2023-03-20T06:48:01.420Z,94.91
2023-03-20T06:50:29.217Z,95.22
2023-03-20T06:52:59.533Z,95.07
2023-03-20T06:55:41.541Z,95.85
2023-03-20T06:58:10.613Z,95.95
2023-03-20T07:00:39.145Z,96.37
2023-03-20T07:03:08.674Z,96.73
2023-03-20T07:05:36.780Z,96.69
2023-03-20T07:08:08.505Z,97.47
2023-03-20T07:10:36.484Z,97.25
2023-03-20T07:13:04.779Z,96.12
2023-03-20T07:15:34.558Z,96.18
2023-03-20T07:18:02.586Z,95.10
2023-03-20T07:20:30.313Z,94.56
2023-03-20T07:22:58.086Z,94.28
2023-03-20T07:25:39.675Z,94.33
2023-03-20T07:28:11.086Z,93.56
2023-03-20T07:30:43.542Z,93.44
2023-03-20T07:33:12.010Z,93.03
2023-03-20T07:35:40.622Z,92.09
2023-03-20T07:38:09.108Z,92.61
2023-03-20T07:40:45.914Z,91.56
2023-03-20T07:43:16.749Z,91.28
2023-03-20T07:46:11.615Z,94.36
2023-03-20T07:48:39.669Z,91.31
2023-03-20T07:51:07.998Z,90.51
2023-03-20T07:53:35.651Z,89.46
2023-03-20T07:56:05.361Z,88.86
2023-03-20T07:58:32.950Z,87.18
2023-03-20T08:01:03.550Z,86.83
2023-03-20T08:03:32.811Z,86.83
2023-03-20T08:06:01.637Z,84.10
2023-03-20T08:08:29.465Z,83.54
2023-03-20T08:10:57.208Z,84.41
2023-03-20T08:13:24.747Z,84.34
2023-03-20T08:15:52.638Z,84.54
2023-03-20T08:18:22.360Z,83.95
2023-03-20T08:20:51.491Z,83.42
2023-03-20T08:23:20.797Z,84.75
2023-03-20T08:25:49.251Z,84.01
2023-03-20T08:28:17.418Z,84.71
2023-03-20T08:30:45.421Z,84.99
2023-03-20T08:33:13.952Z,84.56
2023-03-20T08:35:41.621Z,85.01
2023-03-20T08:38:13.194Z,83.97
2023-03-20T08:40:42.022Z,84.00
2023-03-20T08:43:09.891Z,80.93
2023-03-20T08:45:37.974Z,80.90
2023-03-20T08:48:05.815Z,80.08
2023-03-20T08:50:33.539Z,80.84
2023-03-20T08:53:01.205Z,79.26
2023-03-20T08:55:30.237Z,79.43
2023-03-20T08:57:58.205Z,76.64
2023-03-20T09:00:27.501Z,76.53
2023-03-20T09:02:55.217Z,76.94
2023-03-20T09:05:22.979Z,77.73
2023-03-20T09:07:51.291Z,76.90
2023-03-20T09:10:19.069Z,77.04
2023-03-20T09:12:47.890Z,76.29
2023-03-20T09:15:15.484Z,76.94
2023-03-20T09:17:43.000Z,78.15
2023-03-20T09:20:11.781Z,77.16
2023-03-20T09:22:41.062Z,77.55
2023-03-20T09:25:09.654Z,76.57
2023-03-20T09:27:37.325Z,76.49
2023-03-20T09:30:08.230Z,74.81
2023-03-20T09:32:36.244Z,74.84
2023-03-20T09:35:04.543Z,74.69
2023-03-20T09:37:32.037Z,74.04
2023-03-20T09:39:59.703Z,72.12
2023-03-20T09:42:39.409Z,73.32
2023-03-20T09:45:15.539Z,74.28
2023-03-20T09:47:50.815Z,74.30
2023-03-20T09:50:27.134Z,74.32
2023-03-20T09:52:59.146Z,73.58
2023-03-20T09:55:34.805Z,73.32
2023-03-20T09:58:10.967Z,73.99
2023-03-20T10:00:43.718Z,73.00
2023-03-20T10:03:19.816Z,72.98
2023-03-20T10:05:50.965Z,72.96
2023-03-20T10:08:22.165Z,72.98
2023-03-20T10:10:53.593Z,72.75
2023-03-20T10:13:40.176Z,71.18
2023-03-20T10:16:18.351Z,70.37
2023-03-20T10:18:52.529Z,71.37
2023-03-20T10:21:26.234Z,70.89
2023-03-20T10:24:01.358Z,70.39
2023-03-20T10:26:30.994Z,71.23
2023-03-20T10:29:00.001Z,70.67
2023-03-20T10:31:38.458Z,69.50
2023-03-20T10:34:24.863Z,69.52
2023-03-20T10:37:05.346Z,68.84
2023-03-20T10:39:50.206Z,66.18
2023-03-20T10:42:22.726Z,66.40
2023-03-20T10:44:57.366Z,64.99
2023-03-20T10:47:32.132Z,64.04
2023-03-20T10:50:03.940Z,62.21
2023-03-20T10:52:34.894Z,64.36
2023-03-20T10:55:07.862Z,60.69
2023-03-20T10:57:41.909Z,60.54
2023-03-20T11:00:15.381Z,60.48
2023-03-20T11:02:44.410Z,61.00
2023-03-20T11:05:23.076Z,61.73
2023-03-20T11:07:54.190Z,63.12
2023-03-20T11:10:22.055Z,62.50
2023-03-20T11:12:52.248Z,62.65
2023-03-20T11:15:23.807Z,61.52
2023-03-20T11:17:57.508Z,60.81
2023-03-20T11:20:27.924Z,60.56
2023-03-20T11:23:00.641Z,58.74
2023-03-20T11:25:33.381Z,59.02
2023-03-20T11:28:32.866Z,58.25
2023-03-20T11:31:05.257Z,57.15
2023-03-20T11:33:38.425Z,55.95
2023-03-20T11:36:12.998Z,57.04
2023-03-20T11:38:46.004Z,56.55
2023-03-20T11:41:19.627Z,56.20
2023-03-20T11:43:47.240Z,57.18
2023-03-20T11:46:15.446Z,56.63
2023-03-20T11:48:46.515Z,57.25
2023-03-20T11:51:17.873Z,56.58
2023-03-20T11:54:01.180Z,57.46
2023-03-20T11:56:30.545Z,58.07
2023-03-20T11:59:00.910Z,56.77
2023-03-20T12:01:30.903Z,56.88
2023-03-20T12:04:05.105Z,56.72
2023-03-20T12:06:43.824Z,57.01
2023-03-20T12:09:18.927Z,56.27
2023-03-20T12:11:55.446Z,54.09
2023-03-20T12:14:33.846Z,53.56
2023-03-20T12:17:30.830Z,53.15
2023-03-20T12:20:04.798Z,51.87
2023-03-20T12:22:37.849Z,52.21
2023-03-20T12:25:16.568Z,53.22
2023-03-20T12:27:49.051Z,52.91
2023-03-20T12:30:21.608Z,53.23
2023-03-20T12:32:57.236Z,52.99
2023-03-20T12:35:29.052Z,52.64
2023-03-20T12:37:56.791Z,52.60
2023-03-20T12:40:34.350Z,50.79
2023-03-20T12:43:06.701Z,51.27
2023-03-20T12:45:44.216Z,51.15
2023-03-20T12:48:37.609Z,52.88
2023-03-20T12:51:13.691Z,52.08
2023-03-20T12:53:53.423Z,50.30
2023-03-20T12:56:32.209Z,49.13
2023-03-20T12:59:07.995Z,48.22
2023-03-20T13:01:41.983Z,48.53
2023-03-20T13:04:44.601Z,49.25
2023-03-20T13:07:20.322Z,49.58
2023-03-20T13:09:58.076Z,49.65
2023-03-20T13:12:34.335Z,50.82
2023-03-20T13:15:14.981Z,49.74
2023-03-20T13:17:50.964Z,49.32
2023-03-20T13:20:27.949Z,50.23
2023-03-20T13:23:06.082Z,50.46
2023-03-20T13:25:57.469Z,49.49
2023-03-20T13:28:31.766Z,48.84
2023-03-20T13:31:07.318Z,49.04
2023-03-20T13:33:46.288Z,47.86
2023-03-20T13:36:24.256Z,45.13
2023-03-20T13:39:01.174Z,44.16
2023-03-20T13:41:29.448Z,44.27
2023-03-20T13:44:01.106Z,45.06
2023-03-20T13:46:34.986Z,44.30
2023-03-20T13:49:09.641Z,45.87
2023-03-20T13:51:43.215Z,44.42
2023-03-20T13:54:33.060Z,45.53
2023-03-20T13:57:08.090Z,46.04
2023-03-20T13:59:44.501Z,46.68
2023-03-20T14:02:27.500Z,47.68
2023-03-20T14:05:02.214Z,46.31
2023-03-20T14:07:32.216Z,46.28
2023-03-20T14:10:39.766Z,46.91
2023-03-20T14:13:14.368Z,46.88
2023-03-20T14:15:56.159Z,46.11
2023-03-20T14:18:26.279Z,45.30
2023-03-20T14:20:56.977Z,46.34
2023-03-20T14:23:34.877Z,45.39
2023-03-20T14:26:22.813Z,45.33
2023-03-20T14:28:56.622Z,46.53
2023-03-20T14:31:27.728Z,46.37
2023-03-20T14:34:01.317Z,46.44
2023-03-20T14:36:45.810Z,47.17
2023-03-20T14:39:23.468Z,47.04
2023-03-20T14:42:06.519Z,47.00
2023-03-20T14:44:52.448Z,47.58
2023-03-20T14:47:31.112Z,47.94
2023-03-20T14:50:07.021Z,48.60
2023-03-20T14:52:46.782Z,48.89
2023-03-20T14:55:47.388Z,48.43
2023-03-20T14:58:54.393Z,49.49
2023-03-20T15:01:44.044Z,50.56
2023-03-20T15:04:23.963Z,51.04
2023-03-20T15:06:57.439Z,52.15
2023-03-20T15:09:27.632Z,52.84
2023-03-20T15:11:59.531Z,52.15
2023-03-20T15:14:30.225Z,52.06
2023-03-20T15:16:59.143Z,52.71
2023-03-20T15:19:27.042Z,52.39
2023-03-20T15:21:55.778Z,52.68
2023-03-20T15:24:24.418Z,52.77
2023-03-20T15:26:54.452Z,52.59
2023-03-20T15:29:22.881Z,52.82
2023-03-20T15:32:12.426Z,53.73
2023-03-20T15:34:42.439Z,53.63
2023-03-20T15:37:15.305Z,53.61
2023-03-20T15:39:45.661Z,54.12
2023-03-20T15:42:15.818Z,54.16
2023-03-20T15:44:47.929Z,53.82
2023-03-20T15:47:21.131Z,54.04
2023-03-20T15:49:54.015Z,54.14
2023-03-20T15:52:28.672Z,53.09
2023-03-20T15:54:58.017Z,52.44
2023-03-20T15:57:30.764Z,52.19
2023-03-20T15:59:59.253Z,51.89
2023-03-20T16:02:30.675Z,52.62
2023-03-20T16:04:58.369Z,52.02
2023-03-20T16:07:30.917Z,52.06
2023-03-20T16:09:59.576Z,52.60
2023-03-20T16:12:27.866Z,52.45
2023-03-20T16:14:56.748Z,54.93
2023-03-20T16:17:26.038Z,57.82
2023-03-20T16:19:55.256Z,54.72
2023-03-20T16:22:26.050Z,55.83
2023-03-20T16:24:58.182Z,54.42
2023-03-20T16:27:29.156Z,54.61
2023-03-20T16:29:57.647Z,53.96
2023-03-20T16:32:36.654Z,58.38
2023-03-20T16:35:09.863Z,55.02
2023-03-20T16:37:44.889Z,53.91
2023-03-20T16:40:19.316Z,55.58
2023-03-20T16:42:47.443Z,54.06
2023-03-20T16:45:22.560Z,54.30
2023-03-20T16:47:50.438Z,55.15
2023-03-20T16:50:21.986Z,54.85
2023-03-20T16:52:52.379Z,56.29
2023-03-20T16:55:27.389Z,54.76
2023-03-20T16:57:58.702Z,55.42
2023-03-20T17:00:30.108Z,57.03
2023-03-20T17:03:16.730Z,57.51
2023-03-20T17:05:58.153Z,54.92
2023-03-20T17:08:32.411Z,55.15
2023-03-20T17:11:09.693Z,56.00
2023-03-20T17:13:37.198Z,56.11
2023-03-20T17:16:05.454Z,56.42
2023-03-20T17:18:38.987Z,61.97
2023-03-20T17:21:08.272Z,59.59
2023-03-20T17:23:35.985Z,58.76
2023-03-20T17:26:03.557Z,60.27
2023-03-20T17:28:37.030Z,61.02
2023-03-20T17:31:05.350Z,60.78
2023-03-20T17:33:33.782Z,60.88
2023-03-20T17:36:01.829Z,58.20
2023-03-20T17:38:31.436Z,58.06
2023-03-20T17:40:59.087Z,63.25
2023-03-20T17:43:26.652Z,63.16
2023-03-20T17:45:54.348Z,59.90
2023-03-20T17:48:22.414Z,62.39
2023-03-20T17:50:51.301Z,59.89
2023-03-20T17:53:21.155Z,59.16
2023-03-20T17:55:50.200Z,61.33
2023-03-20T17:58:20.904Z,62.47
2023-03-20T18:00:48.828Z,57.96
2023-03-20T18:03:18.003Z,59.76
2023-03-20T18:05:46.624Z,59.08
2023-03-20T18:08:16.419Z,59.09
2023-03-20T18:10:44.813Z,60.03
2023-03-20T18:13:13.832Z,59.74
2023-03-20T18:15:41.865Z,60.70
2023-03-20T18:18:09.660Z,61.01
2023-03-20T18:20:39.667Z,61.37
2023-03-20T18:23:07.527Z,61.99
2023-03-20T18:25:36.014Z,62.46
2023-03-20T18:28:06.696Z,61.20
2023-03-20T18:30:37.950Z,61.58
2023-03-20T18:33:06.233Z,62.47
2023-03-20T18:35:34.232Z,62.64
2023-03-20T18:38:03.817Z,62.08
2023-03-20T18:40:33.318Z,63.15
2023-03-20T18:43:01.299Z,62.93
2023-03-20T18:45:30.665Z,63.10
2023-03-20T18:47:59.899Z,64.88
2023-03-20T18:50:29.801Z,64.62
2023-03-20T18:52:59.234Z,65.54
2023-03-20T18:55:28.613Z,66.55
2023-03-20T18:57:57.120Z,66.90
2023-03-20T19:00:27.137Z,66.82
2023-03-20T19:02:56.452Z,67.38
2023-03-20T19:05:27.640Z,67.25
2023-03-20T19:07:56.228Z,67.14
2023-03-20T19:10:30.260Z,67.60
2023-03-20T19:12:58.409Z,68.29
2023-03-20T19:15:28.193Z,67.87
2023-03-20T19:17:56.812Z,68.32
2023-03-20T19:20:36.049Z,68.96
2023-03-20T19:23:05.425Z,69.49
2023-03-20T19:25:33.497Z,69.71
2023-03-20T19:28:02.189Z,69.34
2023-03-20T19:30:32.531Z,69.89
2023-03-20T19:33:00.542Z,70.92
2023-03-20T19:38:20.654Z,70.76
2023-03-20T19:40:49.293Z,71.35
2023-03-20T19:43:17.197Z,71.76
2023-03-20T19:45:45.874Z,72.56
2023-03-20T19:48:16.580Z,72.56
2023-03-20T19:50:46.698Z,72.56
2023-03-20T19:53:16.607Z,72.19
2023-03-20T19:55:46.342Z,72.58
2023-03-20T19:58:14.663Z,72.60
2023-03-20T20:01:00.806Z,72.86
2023-03-20T20:03:29.029Z,72.79
2023-03-20T20:05:56.893Z,72.91
2023-03-20T20:08:41.018Z,72.77
2023-03-20T20:11:14.971Z,72.82
2023-03-20T20:14:04.183Z,73.02
2023-03-20T20:16:31.606Z,73.41
2023-03-20T20:18:59.215Z,74.39
2023-03-20T20:24:15.920Z,74.15
2023-03-20T20:26:54.487Z,73.87
2023-03-20T20:29:25.451Z,73.86
2023-03-20T20:31:53.174Z,74.21
2023-03-20T20:39:56.346Z,74.60
2023-03-20T20:42:25.363Z,74.44
2023-03-20T20:44:52.868Z,74.82
2023-03-20T20:47:21.198Z,75.25
2023-03-20T20:49:49.021Z,74.42
2023-03-20T20:52:17.437Z,75.41
2023-03-20T20:54:45.041Z,75.62
2023-03-20T20:57:12.891Z,75.80
2023-03-20T20:59:42.088Z,75.57
2023-03-20T21:02:11.868Z,75.59
2023-03-20T21:04:40.489Z,75.96
2023-03-20T21:07:11.556Z,76.45
2023-03-20T21:09:39.893Z,76.82
2023-03-20T21:12:08.588Z,77.19
2023-03-20T21:14:39.562Z,77.32
2023-03-20T21:17:09.972Z,77.05
2023-03-20T21:19:39.794Z,77.57
2023-03-20T21:22:09.024Z,78.00
2023-03-20T21:24:41.199Z,78.63
2023-03-20T21:27:13.712Z,78.81
2023-03-20T21:29:43.015Z,78.39
2023-03-20T21:32:13.581Z,77.84
2023-03-20T21:34:41.557Z,77.38
2023-03-20T21:38:13.105Z,78.32
2023-03-20T21:39:59.102Z,78.48
2023-03-20T21:42:26.970Z,78.97
2023-03-20T21:45:46.283Z,78.96
2023-03-20T21:48:33.339Z,79.11
2023-03-20T21:50:52.911Z,79.22
2023-03-20T21:54:11.038Z,79.30
2023-03-20T21:56:50.467Z,79.61
2023-03-20T21:59:38.127Z,80.27
2023-03-20T22:02:07.733Z,79.80
2023-03-20T22:05:21.872Z,79.10
2023-03-20T22:07:52.104Z,79.02
2023-03-20T22:11:09.463Z,78.67
2023-03-20T22:19:38.505Z,78.73
2023-03-20T22:22:00.039Z,79.08
2023-03-20T22:30:22.906Z,80.13
2023-03-20T22:46:47.450Z,80.11
2023-03-20T22:49:15.945Z,80.39
2023-03-20T22:51:57.492Z,80.17
2023-03-20T22:54:32.100Z,80.86
2023-03-20T22:56:59.693Z,80.59
2023-03-20T22:59:27.257Z,80.14
2023-03-20T23:01:54.859Z,80.08
2023-03-20T23:04:22.447Z,80.22
2023-03-20T23:06:50.007Z,80.66
2023-03-20T23:09:17.823Z,80.55
2023-03-20T23:11:47.289Z,80.69
2023-03-20T23:14:21.351Z,80.59
2023-03-20T23:16:49.815Z,81.25
2023-03-20T23:19:17.452Z,81.20
2023-03-20T23:21:45.077Z,80.80
2023-03-20T23:24:12.622Z,80.86
2023-03-20T23:26:40.336Z,80.04
2023-03-20T23:29:09.434Z,80.55
2023-03-20T23:31:37.049Z,81.21
2023-03-20T23:34:04.716Z,81.42
2023-03-20T23:36:37.024Z,80.92
2023-03-20T23:39:05.977Z,81.57
2023-03-20T23:44:22.625Z,81.60
2023-03-20T23:46:50.491Z,81.55
2023-03-20T23:49:18.342Z,82.52
2023-03-20T23:51:46.305Z,82.78
2023-03-20T23:54:14.263Z,82.82
2023-03-20T23:56:41.943Z,83.19
2023-03-20T23:59:20.705Z,82.21
